sensor_id;sensor_type;location;lat;lon;timestamp;pressure;altitude;pressure_sealevel;temperature;humidity
11525;BME280;5819;49.648;8.330;2022-12-10T00:01:16;99410.34;;;1.45;100.00
11525;BME280;5819;49.648;8.330;2022-12-10T00:03:45;99416.63;;;1.31;100.00
11525;BME280;5819;49.648;8.330;2022-12-10T00:06:15;99414.91;;;1.32;100.00
11525;BME280;5819;49.648;8.330;2022-12-10T00:08:44;99416.72;;;1.25;100.00
11525;BME280;5819;49.648;8.330;2022-12-10T00:11:13;99412.59;;;1.18;100.00
11525;BME280;5819;49.648;8.330;2022-12-10T00:13:43;99408.44;;;1.54;100.00
11525;BME280;5819;49.648;8.330;2022-12-10T00:16:14;99407.16;;;1.33;100.00
11525;BME280;5819;49.648;8.330;2022-12-10T00:18:42;99406.31;;;1.33;100.00
11525;BME280;5819;49.648;8.330;2022-12-10T00:21:13;99409.72;;;1.33;100.00
11525;BME280;5819;49.648;8.330;2022-12-10T00:23:41;99411.44;;;1.33;100.00
11525;BME280;5819;49.648;8.330;2022-12-10T00:26:12;99408.38;;;1.16;100.00
11525;BME280;5819;49.648;8.330;2022-12-10T00:28:41;99411.59;;;1.25;100.00
11525;BME280;5819;49.648;8.330;2022-12-10T00:31:11;99407.94;;;1.37;100.00
11525;BME280;5819;49.648;8.330;2022-12-10T00:33:41;99416.72;;;1.25;100.00
11525;BME280;5819;49.648;8.330;2022-12-10T00:36:12;99412.50;;;1.23;100.00
11525;BME280;5819;49.648;8.330;2022-12-10T00:38:41;99408.88;;;1.33;100.00
11525;BME280;5819;49.648;8.330;2022-12-10T00:41:10;99410.03;;;1.18;100.00
11525;BME280;5819;49.648;8.330;2022-12-10T00:43:39;99401.31;;;1.28;100.00
11525;BME280;5819;49.648;8.330;2022-12-10T00:46:10;99409.13;;;1.21;100.00
11525;BME280;5819;49.648;8.330;2022-12-10T00:48:41;99407.53;;;1.15;100.00
11525;BME280;5819;49.648;8.330;2022-12-10T00:51:12;99407.47;;;1.20;100.00
11525;BME280;5819;49.648;8.330;2022-12-10T00:53:42;99404.00;;;1.21;100.00
11525;BME280;5819;49.648;8.330;2022-12-10T00:56:11;99402.19;;;1.27;100.00
11525;BME280;5819;49.648;8.330;2022-12-10T00:58:40;99403.03;;;1.28;100.00
11525;BME280;5819;49.648;8.330;2022-12-10T01:01:09;99412.50;;;1.24;100.00
11525;BME280;5819;49.648;8.330;2022-12-10T01:03:38;99413.50;;;1.16;100.00
11525;BME280;5819;49.648;8.330;2022-12-10T01:06:10;99413.50;;;1.16;100.00
11525;BME280;5819;49.648;8.330;2022-12-10T01:08:38;99413.50;;;1.16;100.00
11525;BME280;5819;49.648;8.330;2022-12-10T01:11:06;99418.63;;;1.16;100.00
11525;BME280;5819;49.648;8.330;2022-12-10T01:13:35;99416.09;;;1.13;100.00
11525;BME280;5819;49.648;8.330;2022-12-10T01:16:05;99420.13;;;1.26;100.00
11525;BME280;5819;49.648;8.330;2022-12-10T01:18:34;99420.25;;;1.20;100.00
11525;BME280;5819;49.648;8.330;2022-12-10T01:21:03;99425.50;;;1.14;100.00
11525;BME280;5819;49.648;8.330;2022-12-10T01:23:34;99424.47;;;1.22;100.00
11525;BME280;5819;49.648;8.330;2022-12-10T01:26:04;99437.25;;;1.24;100.00
11525;BME280;5819;49.648;8.330;2022-12-10T01:28:35;99442.69;;;1.07;100.00
11525;BME280;5819;49.648;8.330;2022-12-10T01:31:06;99445.22;;;1.09;100.00
11525;BME280;5819;49.648;8.330;2022-12-10T01:33:35;99450.16;;;1.18;100.00
11525;BME280;5819;49.648;8.330;2022-12-10T01:36:04;99451.00;;;1.18;100.00
11525;BME280;5819;49.648;8.330;2022-12-10T01:38:33;99459.59;;;1.16;100.00
11525;BME280;5819;49.648;8.330;2022-12-10T01:41:05;99456.34;;;1.08;100.00
11525;BME280;5819;49.648;8.330;2022-12-10T01:43:50;99456.31;;;1.09;100.00
11525;BME280;5819;49.648;8.330;2022-12-10T01:46:19;99460.63;;;1.07;100.00
11525;BME280;5819;49.648;8.330;2022-12-10T01:48:47;99457.91;;;1.16;100.00
11525;BME280;5819;49.648;8.330;2022-12-10T01:51:16;99463.03;;;1.15;100.00
11525;BME280;5819;49.648;8.330;2022-12-10T02:05:25;99464.75;;;1.13;100.00
11525;BME280;5819;49.648;8.330;2022-12-10T02:08:03;99470.50;;;1.25;100.00
11525;BME280;5819;49.648;8.330;2022-12-10T02:10:50;99464.81;;;1.10;100.00
11525;BME280;5819;49.648;8.330;2022-12-10T02:13:27;99470.09;;;1.01;100.00
11525;BME280;5819;49.648;8.330;2022-12-10T02:16:00;99469.06;;;1.12;100.00
11525;BME280;5819;49.648;8.330;2022-12-10T02:18:32;99463.81;;;1.18;100.00
11525;BME280;5819;49.648;8.330;2022-12-10T02:21:08;99470.84;;;1.07;100.00
11525;BME280;5819;49.648;8.330;2022-12-10T02:23:40;99464.97;;;1.04;100.00
11525;BME280;5819;49.648;8.330;2022-12-10T02:26:13;99464.09;;;1.03;100.00
11525;BME280;5819;49.648;8.330;2022-12-10T02:28:48;99463.31;;;1.00;100.00
11525;BME280;5819;49.648;8.330;2022-12-10T02:31:23;99467.91;;;1.28;100.00
11525;BME280;5819;49.648;8.330;2022-12-10T02:33:56;99466.63;;;1.05;100.00
11525;BME280;5819;49.648;8.330;2022-12-10T02:36:28;99467.59;;;0.99;100.00
11525;BME280;5819;49.648;8.330;2022-12-10T02:39:00;99472.78;;;0.94;100.00
11525;BME280;5819;49.648;8.330;2022-12-10T02:41:33;99469.38;;;0.94;100.00
11525;BME280;5819;49.648;8.330;2022-12-10T02:44:06;99465.75;;;1.07;100.00
11525;BME280;5819;49.648;8.330;2022-12-10T02:46:38;99466.59;;;1.08;100.00
11525;BME280;5819;49.648;8.330;2022-12-10T02:49:11;99464.88;;;1.08;100.00
11525;BME280;5819;49.648;8.330;2022-12-10T02:51:39;99463.34;;;0.97;100.00
11525;BME280;5819;49.648;8.330;2022-12-10T02:54:33;99467.44;;;1.07;100.00
11525;BME280;5819;49.648;8.330;2022-12-10T02:57:08;99466.72;;;1.00;100.00
11525;BME280;5819;49.648;8.330;2022-12-10T02:59:47;99463.13;;;1.10;100.00
11525;BME280;5819;49.648;8.330;2022-12-10T03:02:21;99465.69;;;1.09;100.00
11525;BME280;5819;49.648;8.330;2022-12-10T03:04:56;99469.28;;;1.00;100.00
11525;BME280;5819;49.648;8.330;2022-12-10T03:07:27;99456.53;;;0.97;100.00
11525;BME280;5819;49.648;8.330;2022-12-10T03:10:02;99459.16;;;0.92;100.00
11525;BME280;5819;49.648;8.330;2022-12-10T03:12:35;99455.44;;;1.09;100.00
11525;BME280;5819;49.648;8.330;2022-12-10T03:15:07;99457.44;;;0.94;100.00
11525;BME280;5819;49.648;8.330;2022-12-10T03:17:39;99461.53;;;1.03;100.00
11525;BME280;5819;49.648;8.330;2022-12-10T03:20:11;99465.13;;;0.94;100.00
11525;BME280;5819;49.648;8.330;2022-12-10T03:22:43;99460.00;;;0.94;100.00
11525;BME280;5819;49.648;8.330;2022-12-10T03:25:13;99457.53;;;0.88;100.00
11525;BME280;5819;49.648;8.330;2022-12-10T03:27:43;99465.97;;;0.93;100.00
11525;BME280;5819;49.648;8.330;2022-12-10T03:30:13;99458.16;;;1.01;100.00
11525;BME280;5819;49.648;8.330;2022-12-10T03:32:43;99449.63;;;1.01;100.00
11525;BME280;5819;49.648;8.330;2022-12-10T03:35:13;99455.81;;;0.90;100.00
11525;BME280;5819;49.648;8.330;2022-12-10T03:37:42;99454.66;;;1.05;100.00
11525;BME280;5819;49.648;8.330;2022-12-10T03:40:11;99459.84;;;1.02;100.00
11525;BME280;5819;49.648;8.330;2022-12-10T03:42:39;99458.16;;;1.01;100.00
11525;BME280;5819;49.648;8.330;2022-12-10T03:45:08;99458.28;;;0.95;100.00
11525;BME280;5819;49.648;8.330;2022-12-10T03:47:36;99468.75;;;0.83;100.00
11525;BME280;5819;49.648;8.330;2022-12-10T03:50:06;99464.47;;;0.83;100.00
11525;BME280;5819;49.648;8.330;2022-12-10T03:52:34;99461.91;;;0.83;100.00
11525;BME280;5819;49.648;8.330;2022-12-10T03:55:03;99469.59;;;0.82;100.00
11525;BME280;5819;49.648;8.330;2022-12-10T03:57:30;99472.81;;;0.93;100.00
11525;BME280;5819;49.648;8.330;2022-12-10T03:59:58;99471.28;;;0.83;100.00
11525;BME280;5819;49.648;8.330;2022-12-10T04:02:26;99470.59;;;0.75;100.00
11525;BME280;5819;49.648;8.330;2022-12-10T04:04:54;99473.56;;;1.00;100.00
11525;BME280;5819;49.648;8.330;2022-12-10T04:07:24;99476.41;;;0.83;100.00
11525;BME280;5819;49.648;8.330;2022-12-10T04:09:51;99479.59;;;0.96;100.00
11525;BME280;5819;49.648;8.330;2022-12-10T04:12:19;99479.69;;;0.89;100.00
11525;BME280;5819;49.648;8.330;2022-12-10T04:14:47;99477.91;;;0.94;100.00
11525;BME280;5819;49.648;8.330;2022-12-10T04:17:33;99489.13;;;0.87;100.00
11525;BME280;5819;49.648;8.330;2022-12-10T04:20:00;99484.91;;;0.85;100.00
11525;BME280;5819;49.648;8.330;2022-12-10T04:22:30;99479.06;;;0.78;100.00
11525;BME280;5819;49.648;8.330;2022-12-10T04:25:16;99485.66;;;0.90;100.00
11525;BME280;5819;49.648;8.330;2022-12-10T04:28:02;99483.97;;;0.89;100.00
11525;BME280;5819;49.648;8.330;2022-12-10T04:30:30;99480.63;;;0.85;100.00
11525;BME280;5819;49.648;8.330;2022-12-10T04:32:57;99480.69;;;0.84;100.00
11525;BME280;5819;49.648;8.330;2022-12-10T04:35:25;99482.34;;;0.85;100.00
11525;BME280;5819;49.648;8.330;2022-12-10T04:37:54;99487.25;;;0.97;100.00
11525;BME280;5819;49.648;8.330;2022-12-10T04:40:22;99485.75;;;0.85;100.00
11525;BME280;5819;49.648;8.330;2022-12-10T04:42:50;99484.19;;;0.77;100.00
11525;BME280;5819;49.648;8.330;2022-12-10T04:45:18;99490.06;;;0.82;100.00
11525;BME280;5819;49.648;8.330;2022-12-10T04:47:47;99491.84;;;0.78;100.00
11525;BME280;5819;49.648;8.330;2022-12-10T04:50:15;99486.66;;;0.83;100.00
11525;BME280;5819;49.648;8.330;2022-12-10T04:52:43;99495.28;;;0.77;100.00
11525;BME280;5819;49.648;8.330;2022-12-10T04:55:12;99496.44;;;0.58;100.00
11525;BME280;5819;49.648;8.330;2022-12-10T04:57:42;99493.63;;;0.75;100.00
11525;BME280;5819;49.648;8.330;2022-12-10T05:00:11;99500.59;;;0.65;100.00
11525;BME280;5819;49.648;8.330;2022-12-10T05:02:39;99508.31;;;0.62;100.00
11525;BME280;5819;49.648;8.330;2022-12-10T05:05:07;99510.03;;;0.62;100.00
11525;BME280;5819;49.648;8.330;2022-12-10T05:07:35;99508.25;;;0.67;100.00
11525;BME280;5819;49.648;8.330;2022-12-10T05:10:04;99513.44;;;0.64;100.00
11525;BME280;5819;49.648;8.330;2022-12-10T05:12:33;99515.94;;;0.67;100.00
11525;BME280;5819;49.648;8.330;2022-12-10T05:15:01;99513.50;;;0.59;100.00
11525;BME280;5819;49.648;8.330;2022-12-10T05:17:29;99517.81;;;0.56;100.00
11525;BME280;5819;49.648;8.330;2022-12-10T05:19:57;99512.69;;;0.56;100.00
11525;BME280;5819;49.648;8.330;2022-12-10T05:22:24;99517.03;;;0.52;100.00
11525;BME280;5819;49.648;8.330;2022-12-10T05:25:10;99517.03;;;0.52;100.00
11525;BME280;5819;49.648;8.330;2022-12-10T05:27:39;99517.66;;;0.65;100.00
11525;BME280;5819;49.648;8.330;2022-12-10T05:30:09;99522.94;;;0.56;100.00
11525;BME280;5819;49.648;8.330;2022-12-10T05:32:37;99528.00;;;0.57;100.00
11525;BME280;5819;49.648;8.330;2022-12-10T05:35:06;99529.00;;;0.48;100.00
11525;BME280;5819;49.648;8.330;2022-12-10T05:37:34;99527.84;;;0.68;100.00
11525;BME280;5819;49.648;8.330;2022-12-10T05:40:02;99528.91;;;0.53;100.00
11525;BME280;5819;49.648;8.330;2022-12-10T05:42:30;99534.88;;;0.54;100.00
11525;BME280;5819;49.648;8.330;2022-12-10T05:44:59;99543.34;;;0.57;100.00
11525;BME280;5819;49.648;8.330;2022-12-10T05:47:26;99539.94;;;0.57;100.00
11525;BME280;5819;49.648;8.330;2022-12-10T05:49:54;99538.28;;;0.56;100.00
11525;BME280;5819;49.648;8.330;2022-12-10T05:52:22;99534.09;;;0.50;100.00
11525;BME280;5819;49.648;8.330;2022-12-10T05:54:50;99537.56;;;0.44;100.00
11525;BME280;5819;49.648;8.330;2022-12-10T05:57:18;99540.97;;;0.46;100.00
11525;BME280;5819;49.648;8.330;2022-12-10T05:59:46;99548.69;;;0.43;100.00
11525;BME280;5819;49.648;8.330;2022-12-10T06:02:15;99545.28;;;0.43;100.00
11525;BME280;5819;49.648;8.330;2022-12-10T06:04:43;99545.34;;;0.40;100.00
11525;BME280;5819;49.648;8.330;2022-12-10T06:07:11;99550.34;;;0.47;100.00
11525;BME280;5819;49.648;8.330;2022-12-10T06:09:38;99544.34;;;0.48;100.00
11525;BME280;5819;49.648;8.330;2022-12-10T06:12:06;99553.81;;;0.42;100.00
11525;BME280;5819;49.648;8.330;2022-12-10T06:14:34;99554.66;;;0.44;100.00
11525;BME280;5819;49.648;8.330;2022-12-10T06:17:02;99555.47;;;0.47;100.00
11525;BME280;5819;49.648;8.330;2022-12-10T06:19:31;99561.44;;;0.45;100.00
11525;BME280;5819;49.648;8.330;2022-12-10T06:21:59;99570.03;;;0.42;100.00
11525;BME280;5819;49.648;8.330;2022-12-10T06:24:28;99574.22;;;0.45;100.00
11525;BME280;5819;49.648;8.330;2022-12-10T06:26:56;99567.34;;;0.50;100.00
11525;BME280;5819;49.648;8.330;2022-12-10T06:29:24;99564.00;;;0.46;100.00
11525;BME280;5819;49.648;8.330;2022-12-10T06:31:52;99577.59;;;0.50;100.00
11525;BME280;5819;49.648;8.330;2022-12-10T06:34:21;99576.78;;;0.46;100.00
11525;BME280;5819;49.648;8.330;2022-12-10T06:36:50;99585.94;;;0.61;100.00
11525;BME280;5819;49.648;8.330;2022-12-10T06:39:18;99584.47;;;0.45;100.00
11525;BME280;5819;49.648;8.330;2022-12-10T06:41:45;99587.81;;;0.48;100.00
11525;BME280;5819;49.648;8.330;2022-12-10T06:44:13;99586.91;;;0.56;100.00
11525;BME280;5819;49.648;8.330;2022-12-10T06:46:41;99586.28;;;0.40;100.00
11525;BME280;5819;49.648;8.330;2022-12-10T06:49:09;99597.25;;;0.48;100.00
11525;BME280;5819;49.648;8.330;2022-12-10T06:51:37;99599.75;;;0.51;100.00
11525;BME280;5819;49.648;8.330;2022-12-10T06:54:06;99598.16;;;0.41;100.00
11525;BME280;5819;49.648;8.330;2022-12-10T06:56:34;99600.63;;;0.48;100.00
11525;BME280;5819;49.648;8.330;2022-12-10T06:59:04;99602.34;;;0.48;100.00
11525;BME280;5819;49.648;8.330;2022-12-10T07:01:33;99606.69;;;0.43;100.00
11525;BME280;5819;49.648;8.330;2022-12-10T07:04:01;99610.81;;;0.52;100.00
11525;BME280;5819;49.648;8.330;2022-12-10T07:06:30;99602.25;;;0.56;100.00
11525;BME280;5819;49.648;8.330;2022-12-10T07:08:58;99610.72;;;0.58;100.00
11525;BME280;5819;49.648;8.330;2022-12-10T07:11:28;99609.81;;;0.63;100.00
11525;BME280;5819;49.648;8.330;2022-12-10T07:13:57;99605.72;;;0.50;100.00
11525;BME280;5819;49.648;8.330;2022-12-10T07:16:26;99608.28;;;0.52;100.00
11525;BME280;5819;49.648;8.330;2022-12-10T07:18:56;99618.47;;;0.53;100.00
11525;BME280;5819;49.648;8.330;2022-12-10T07:21:26;99613.44;;;0.47;100.00
11525;BME280;5819;49.648;8.330;2022-12-10T07:23:56;99615.91;;;0.53;100.00
11525;BME280;5819;49.648;8.330;2022-12-10T07:26:25;99613.28;;;0.58;100.00
11525;BME280;5819;49.648;8.330;2022-12-10T07:28:54;99621.97;;;0.46;100.00
11525;BME280;5819;49.648;8.330;2022-12-10T07:31:22;99625.28;;;0.54;100.00
11525;BME280;5819;49.648;8.330;2022-12-10T07:33:51;99625.22;;;0.57;100.00
11525;BME280;5819;49.648;8.330;2022-12-10T07:36:21;99632.16;;;0.52;100.00
11525;BME280;5819;49.648;8.330;2022-12-10T07:38:49;99635.50;;;0.54;100.00
11525;BME280;5819;49.648;8.330;2022-12-10T07:41:18;99639.78;;;0.54;100.00
11525;BME280;5819;49.648;8.330;2022-12-10T07:43:46;99632.16;;;0.52;100.00
11525;BME280;5819;49.648;8.330;2022-12-10T07:46:18;99638.88;;;0.59;100.00
11525;BME280;5819;49.648;8.330;2022-12-10T07:48:48;99636.25;;;0.62;100.00
11525;BME280;5819;49.648;8.330;2022-12-10T07:51:17;99645.69;;;0.57;100.00
11525;BME280;5819;49.648;8.330;2022-12-10T07:53:48;99638.94;;;0.53;100.00
11525;BME280;5819;49.648;8.330;2022-12-10T07:56:15;99644.16;;;0.47;100.00
11525;BME280;5819;49.648;8.330;2022-12-10T07:58:44;99642.38;;;0.52;100.00
11525;BME280;5819;49.648;8.330;2022-12-10T08:01:14;99648.38;;;0.50;100.00
11525;BME280;5819;49.648;8.330;2022-12-10T08:03:44;99637.16;;;0.57;100.00
11525;BME280;5819;49.648;8.330;2022-12-10T08:06:15;99646.66;;;0.48;100.00
11525;BME280;5819;49.648;8.330;2022-12-10T08:08:45;99644.09;;;0.52;100.00
11525;BME280;5819;49.648;8.330;2022-12-10T08:11:14;99651.81;;;0.45;100.00
11525;BME280;5819;49.648;8.330;2022-12-10T08:13:43;99653.53;;;0.46;100.00
11525;BME280;5819;49.648;8.330;2022-12-10T08:16:12;99656.59;;;0.71;100.00
11525;BME280;5819;49.648;8.330;2022-12-10T08:18:40;99655.06;;;0.57;100.00
11525;BME280;5819;49.648;8.330;2022-12-10T08:21:12;99659.50;;;0.45;100.00
11525;BME280;5819;49.648;8.330;2022-12-10T08:23:41;99661.16;;;0.51;100.00
11525;BME280;5819;49.648;8.330;2022-12-10T08:26:10;99655.13;;;0.54;100.00
11525;BME280;5819;49.648;8.330;2022-12-10T08:28:39;99661.00;;;0.62;100.00
11525;BME280;5819;49.648;8.330;2022-12-10T08:31:08;99664.50;;;0.56;100.00
11525;BME280;5819;49.648;8.330;2022-12-10T08:33:38;99667.19;;;0.45;100.00
11525;BME280;5819;49.648;8.330;2022-12-10T08:36:07;99667.00;;;0.59;100.00
11525;BME280;5819;49.648;8.330;2022-12-10T08:38:39;99678.31;;;0.41;100.00
11525;BME280;5819;49.648;8.330;2022-12-10T08:41:08;99680.09;;;0.35;100.00
11525;BME280;5819;49.648;8.330;2022-12-10T08:43:36;99674.94;;;0.39;100.00
11525;BME280;5819;49.648;8.330;2022-12-10T08:46:04;99678.44;;;0.31;100.00
11525;BME280;5819;49.648;8.330;2022-12-10T08:48:33;99677.66;;;0.27;100.00
11525;BME280;5819;49.648;8.330;2022-12-10T08:51:01;99681.81;;;0.33;100.00
11525;BME280;5819;49.648;8.330;2022-12-10T08:53:30;99690.47;;;0.23;100.00
11525;BME280;5819;49.648;8.330;2022-12-10T08:55:59;99687.84;;;0.29;100.00
11525;BME280;5819;49.648;8.330;2022-12-10T08:58:27;99687.63;;;0.47;100.00
11525;BME280;5819;49.648;8.330;2022-12-10T09:00:54;99680.56;;;0.66;100.00
11525;BME280;5819;49.648;8.330;2022-12-10T09:03:22;99680.66;;;0.57;100.00
11525;BME280;5819;49.648;8.330;2022-12-10T09:05:51;99684.78;;;0.68;100.00
11525;BME280;5819;49.648;8.330;2022-12-10T09:08:19;99682.88;;;0.84;100.00
11525;BME280;5819;49.648;8.330;2022-12-10T09:10:47;99677.47;;;1.02;100.00
11525;BME280;5819;49.648;8.330;2022-12-10T09:13:16;99679.38;;;0.89;100.00
11525;BME280;5819;49.648;8.330;2022-12-10T09:15:49;99678.44;;;0.93;100.00
11525;BME280;5819;49.648;8.330;2022-12-10T09:18:18;99670.53;;;1.10;100.00
11525;BME280;5819;49.648;8.330;2022-12-10T09:20:46;99674.91;;;1.02;100.00
11525;BME280;5819;49.648;8.330;2022-12-10T09:23:14;99682.72;;;0.94;100.00
11525;BME280;5819;49.648;8.330;2022-12-10T09:25:42;99685.38;;;0.87;100.00
11525;BME280;5819;49.648;8.330;2022-12-10T09:28:09;99680.75;;;1.12;100.00
11525;BME280;5819;49.648;8.330;2022-12-10T09:30:38;99683.50;;;1.00;100.00
11525;BME280;5819;49.648;8.330;2022-12-10T09:33:06;99671.97;;;1.26;100.00
11525;BME280;5819;49.648;8.330;2022-12-10T09:35:34;99676.19;;;1.30;100.00
11525;BME280;5819;49.648;8.330;2022-12-10T09:38:06;99679.69;;;1.25;100.00
11525;BME280;5819;49.648;8.330;2022-12-10T09:40:39;99678.81;;;1.27;100.00
11525;BME280;5819;49.648;8.330;2022-12-10T09:43:14;99687.34;;;1.28;100.00
11525;BME280;5819;49.648;8.330;2022-12-10T09:45:52;99677.22;;;1.19;100.00
11525;BME280;5819;49.648;8.330;2022-12-10T09:48:30;99679.00;;;1.14;100.00
11525;BME280;5819;49.648;8.330;2022-12-10T09:51:04;99676.56;;;1.08;100.00
11525;BME280;5819;49.648;8.330;2022-12-10T09:53:35;99685.09;;;1.05;100.00
11525;BME280;5819;49.648;8.330;2022-12-10T09:56:04;99680.56;;;1.24;100.00
11525;BME280;5819;49.648;8.330;2022-12-10T09:58:34;99679.50;;;1.37;100.00
11525;BME280;5819;49.648;8.330;2022-12-10T10:01:06;99677.69;;;1.44;100.00
11525;BME280;5819;49.648;8.330;2022-12-10T10:03:38;99677.22;;;1.69;100.00
11525;BME280;5819;49.648;8.330;2022-12-10T10:06:09;99678.22;;;1.62;100.00
11525;BME280;5819;49.648;8.330;2022-12-10T10:08:41;99678.41;;;1.50;100.00
11525;BME280;5819;49.648;8.330;2022-12-10T10:11:11;99673.16;;;1.58;100.00
11525;BME280;5819;49.648;8.330;2022-12-10T10:13:40;99669.59;;;1.66;100.00
11525;BME280;5819;49.648;8.330;2022-12-10T10:16:21;99670.31;;;1.74;100.00
11525;BME280;5819;49.648;8.330;2022-12-10T10:18:55;99671.25;;;1.70;100.00
11525;BME280;5819;49.648;8.330;2022-12-10T10:21:26;99673.53;;;1.85;100.00
11525;BME280;5819;49.648;8.330;2022-12-10T10:23:55;99670.50;;;1.64;100.00
11525;BME280;5819;49.648;8.330;2022-12-10T10:26:24;99679.06;;;1.64;100.00
11525;BME280;5819;49.648;8.330;2022-12-10T10:28:55;99680.84;;;1.58;100.00
11525;BME280;5819;49.648;8.330;2022-12-10T10:31:27;99680.78;;;1.61;100.00
11525;BME280;5819;49.648;8.330;2022-12-10T10:33:57;99686.91;;;1.54;100.00
11525;BME280;5819;49.648;8.330;2022-12-10T10:36:28;99680.56;;;1.76;100.00
11525;BME280;5819;49.648;8.330;2022-12-10T10:38:56;99672.88;;;1.73;100.00
11525;BME280;5819;49.648;8.330;2022-12-10T10:41:25;99675.06;;;1.94;100.00
11525;BME280;5819;49.648;8.330;2022-12-10T10:43:59;99673.91;;;2.10;100.00
11525;BME280;5819;49.648;8.330;2022-12-10T10:46:29;99673.13;;;2.08;100.00
11525;BME280;5819;49.648;8.330;2022-12-10T10:49:14;99672.91;;;2.17;100.00
11525;BME280;5819;49.648;8.330;2022-12-10T10:51:46;99670.97;;;2.30;100.00
11525;BME280;5819;49.648;8.330;2022-12-10T10:54:31;99679.56;;;2.27;100.00
11525;BME280;5819;49.648;8.330;2022-12-10T10:57:02;99679.66;;;2.23;100.00
11525;BME280;5819;49.648;8.330;2022-12-10T10:59:32;99680.28;;;2.35;100.00
11525;BME280;5819;49.648;8.330;2022-12-10T11:02:15;99679.94;;;2.52;100.00
11525;BME280;5819;49.648;8.330;2022-12-10T11:04:48;99690.47;;;2.37;100.00
11525;BME280;5819;49.648;8.330;2022-12-10T11:07:21;99691.66;;;2.21;100.00
11525;BME280;5819;49.648;8.330;2022-12-10T11:09:51;99696.06;;;2.14;100.00
11525;BME280;5819;49.648;8.330;2022-12-10T11:12:34;99697.94;;;2.05;100.00
11525;BME280;5819;49.648;8.330;2022-12-10T11:15:28;99690.78;;;2.23;100.00
11525;BME280;5819;49.648;8.330;2022-12-10T11:17:57;99689.66;;;2.37;100.00
11525;BME280;5819;49.648;8.330;2022-12-10T11:20:28;99690.06;;;2.15;100.00
11525;BME280;5819;49.648;8.330;2022-12-10T11:22:57;99681.97;;;2.35;100.00
11525;BME280;5819;49.648;8.330;2022-12-10T11:25:37;99687.53;;;2.14;100.00
11525;BME280;5819;49.648;8.330;2022-12-10T11:28:13;99691.94;;;2.06;100.00
11525;BME280;5819;49.648;8.330;2022-12-10T11:30:45;99697.84;;;2.12;100.00
11525;BME280;5819;49.648;8.330;2022-12-10T11:33:23;99695.44;;;2.02;100.00
11525;BME280;5819;49.648;8.330;2022-12-10T11:36:02;99695.38;;;2.06;100.00
11525;BME280;5819;49.648;8.330;2022-12-10T11:38:41;99698.56;;;2.17;100.00
11525;BME280;5819;49.648;8.330;2022-12-10T11:41:19;99686.66;;;2.16;100.00
11525;BME280;5819;49.648;8.330;2022-12-10T11:44:07;99683.69;;;2.36;100.00
11525;BME280;5819;49.648;8.330;2022-12-10T11:46:56;99682.91;;;2.32;100.00
11525;BME280;5819;49.648;8.330;2022-12-10T11:49:35;99702.09;;;2.56;100.00
11525;BME280;5819;49.648;8.330;2022-12-10T11:52:12;99685.53;;;2.69;100.00
11525;BME280;5819;49.648;8.330;2022-12-10T11:55:01;99691.69;;;2.61;100.00
11525;BME280;5819;49.648;8.330;2022-12-10T11:57:40;99699.53;;;2.55;100.00
11525;BME280;5819;49.648;8.330;2022-12-10T12:00:18;99693.63;;;2.51;100.00
11525;BME280;5819;49.648;8.330;2022-12-10T12:03:09;99699.00;;;2.39;100.00
11525;BME280;5819;49.648;8.330;2022-12-10T12:05:56;99704.00;;;2.45;100.00
11525;BME280;5819;49.648;8.330;2022-12-10T12:08:41;99704.06;;;2.42;100.00
11525;BME280;5819;49.648;8.330;2022-12-10T12:11:33;99704.22;;;2.34;100.00
11525;BME280;5819;49.648;8.330;2022-12-10T12:14:08;99706.72;;;2.38;100.00
11525;BME280;5819;49.648;8.330;2022-12-10T12:16:43;99705.94;;;2.34;100.00
11525;BME280;5819;49.648;8.330;2022-12-10T12:19:16;99704.13;;;2.41;100.00
11525;BME280;5819;49.648;8.330;2022-12-10T12:21:50;99711.00;;;2.37;100.00
11525;BME280;5819;49.648;8.330;2022-12-10T12:24:21;99709.34;;;2.36;100.00
11525;BME280;5819;49.648;8.330;2022-12-10T12:26:52;99721.25;;;2.39;100.00
11525;BME280;5819;49.648;8.330;2022-12-10T12:29:26;99722.41;;;2.24;100.00
11525;BME280;5819;49.648;8.330;2022-12-10T12:32:04;99723.06;;;2.33;100.00
11525;BME280;5819;49.648;8.330;2022-12-10T12:34:44;99714.66;;;2.25;100.00
11525;BME280;5819;49.648;8.330;2022-12-10T12:37:20;99710.22;;;2.35;100.00
11525;BME280;5819;49.648;8.330;2022-12-10T12:39:53;99712.75;;;2.37;100.00
11525;BME280;5819;49.648;8.330;2022-12-10T12:42:30;99712.63;;;2.41;100.00
11525;BME280;5819;49.648;8.330;2022-12-10T12:45:03;99713.50;;;2.42;100.00
11525;BME280;5819;49.648;8.330;2022-12-10T12:47:39;99721.88;;;2.50;100.00
11525;BME280;5819;49.648;8.330;2022-12-10T12:50:20;99713.41;;;2.46;100.00
11525;BME280;5819;49.648;8.330;2022-12-10T12:52:55;99716.13;;;2.37;100.00
11525;BME280;5819;49.648;8.330;2022-12-10T12:55:29;99718.72;;;2.37;100.00
11525;BME280;5819;49.648;8.330;2022-12-10T12:58:11;99714.34;;;2.42;100.00
11525;BME280;5819;49.648;8.330;2022-12-10T13:00:43;99722.13;;;2.38;100.00
11525;BME280;5819;49.648;8.330;2022-12-10T13:03:24;99721.72;;;2.57;100.00
11525;BME280;5819;49.648;8.330;2022-12-10T13:05:55;99715.22;;;2.41;100.00
11525;BME280;5819;49.648;8.330;2022-12-10T13:08:30;99716.97;;;2.39;100.00
11525;BME280;5819;49.648;8.330;2022-12-10T13:11:00;99717.00;;;2.38;100.00
11525;BME280;5819;49.648;8.330;2022-12-10T13:14:13;99722.16;;;2.36;100.00
11525;BME280;5819;49.648;8.330;2022-12-10T13:16:48;99720.31;;;2.43;100.00
11525;BME280;5819;49.648;8.330;2022-12-10T13:19:24;99717.97;;;2.32;100.00
11525;BME280;5819;49.648;8.330;2022-12-10T13:22:06;99729.97;;;2.30;100.00
11525;BME280;5819;49.648;8.330;2022-12-10T13:25:00;99731.78;;;2.25;100.00
11525;BME280;5819;49.648;8.330;2022-12-10T13:27:33;99737.72;;;2.28;100.00
11525;BME280;5819;49.648;8.330;2022-12-10T13:30:25;99733.53;;;2.23;100.00
11525;BME280;5819;49.648;8.330;2022-12-10T13:33:05;99735.41;;;2.15;100.00
11525;BME280;5819;49.648;8.330;2022-12-10T13:35:43;99739.59;;;2.19;100.00
11525;BME280;5819;49.648;8.330;2022-12-10T13:38:20;99748.22;;;2.16;100.00
11525;BME280;5819;49.648;8.330;2022-12-10T13:41:03;99749.00;;;2.18;100.00
11525;BME280;5819;49.648;8.330;2022-12-10T13:43:53;99752.25;;;2.28;100.00
11525;BME280;5819;49.648;8.330;2022-12-10T13:46:55;99754.69;;;2.34;100.00